• Join FlightAware (Why Join?)
  • Login
  • US Flag 
07:23AM EDT


 

Airport Tracker/Info


-or-


 

Live Flight TrackerFlight Track Log ✈ JBU917 ✈ 11-Jul-2013 ✈ KBOS - KJFK

Flight Track Log - Related Links

Times and Time Zones

All times are in EDT time to prevent confusion due to time zone crossing. See the JBU917 flight status page for this flight to view local times or setup timezone preferences in your user account.

Time Position Orientation Groundspeed Altitude Reporting Facility
EDT Latitude Longitude Course Direction KTS MPH feet Rate Location/Type
06:02AM 42.3500 -71.0167 160° South 158 182 1,100  Level KA90
06:04AM 42.3228 -70.8619 103° East 236 272 6,000 2,520 Climbing Boston Center
06:05AM 42.3792 -70.7292 144° Southeast  Level FlightAware Approximate
06:05AM 42.3150 -70.7528 95° East 254 292 9,300  Level Boston Center
06:06AM 42.2868 -70.6847 164° South  Level FlightAware Approximate
06:06AM 42.2333 -70.7408 174° South 210 242 12,100  Level Boston Center
06:07AM 42.2368 -70.6517 160° South  Level FlightAware Approximate
06:07AM 42.1419 -70.7461 182° South 278 320 14,400  Level Boston Center
06:08AM 42.0419 -70.7489 181° South 310 357 16,800 2,460 Climbing Boston Center
06:09AM 41.9375 -70.7461 179° South 350 403 19,400 2,340 Climbing Boston Center
06:10AM 41.8356 -70.7514 182° South 368 423 21,500 1,200 Climbing Boston Center
06:11AM 41.7467 -70.8039 204° Southwest 372 428 21,900 240 Climbing Boston Center
06:12AM 41.6500 -70.8925 214° Southwest 386 444 22,000  Climbing Boston Center
06:13AM 41.5592 -70.9642 211° Southwest 386 444 22,000  Level Boston Center
06:14AM 41.4875 -71.0656 227° Southwest 381 438 22,000  Level Boston Center
06:15AM 41.4181 -71.1778 230° Southwest 383 441 22,000  Level Boston Center
06:16AM 41.3503 -71.2869 230° Southwest 389 448 22,000  Level Boston Center
06:17AM 41.2869 -71.3986 233° Southwest 389 448 22,000  Level Boston Center
06:18AM 41.2233 -71.5128 233° Southwest 389 448 22,000  Level Boston Center
06:19AM 41.1928 -71.6264 250° West 375 432 22,000  Level Boston Center
06:20AM 41.1647 -71.7592 254° West 368 423 22,000  Level Boston Center
06:21AM 41.1342 -71.8944 253° West 374 430 22,000  Level Boston Center
06:22AM 41.1056 -72.0406 255° West 383 441 22,000 -720 Level Boston Center
06:23AM 41.0767 -72.1703 254° West 372 428 20,600 -1,620 Descending Boston Center
06:24AM 41.0497 -72.2750 251° West 354 407 18,800 -1,800 Descending Boston Center
06:25AM 41.0228 -72.3933 253° West 342 394 17,100 -1,500 Descending Boston Center
06:26AM 40.9958 -72.5117 253° West 342 394 15,800 -1,620 Descending Boston Center
06:27AM 40.9686 -72.6408 254° West 337 388 13,900 -1,800 Descending Boston Center
06:28AM 40.9433 -72.7478 253° West 337 388 12,200 -1,260 Descending Boston Center
06:29AM 40.9333 -72.8000 256° West 289 333 12,000 -180 Descending New York TRACON
06:30AM 40.8833 -72.8667 225° Southwest 281 323 12,000 -360 Level New York TRACON
06:31AM 40.8333 -72.9500 232° Southwest 271 312 11,400 -1,080 Descending New York TRACON
06:32AM 40.8000 -73.0167 237° Southwest 273 314 10,000 -1,320 Descending New York TRACON
06:33AM 40.7500 -73.0833 225° Southwest 274 315 9,100 -1,260 Descending New York TRACON
06:34AM 40.7333 -73.1833 258° West 268 308 7,700 -1,680 Descending New York TRACON
06:35AM 40.7333 -73.2667 270° West 254 292 5,800 -1,740 Descending New York TRACON
06:36AM 40.7500 -73.3500 285° West 261 300 4,500 -1,320 Descending New York TRACON
06:37AM 40.7833 -73.4333 298° West 252 290 3,300 -1,080 Descending New York TRACON
06:37AM 40.7833 -73.5167 270° West 240 276 2,500 -720 Descending New York TRACON
06:38AM 40.7833 -73.6000 270° West 222 255 2,000 -300 Descending New York TRACON
06:39AM 40.7500 -73.6667 237° Southwest 204 235 2,000 -180 Level New York TRACON
06:40AM 40.7167 -73.7000 217° Southwest 168 193 1,700 -600 Descending New York TRACON
06:41AM 40.6833 -73.7167 201° Southwest 130 150 900 -780 Descending New York TRACON
06:42AM 40.6500 -73.7500 217° Southwest 129 148 300 -720 Descending New York TRACON
06:44AM 40.6333 -73.7667 North  Level FlightAware Approximate
06:51AM 40.6398 -73.7789 North  Level Estimated